CheckWX is a tool to help pilots better visualize weather data.  It is not intended as a substitute for an official pre-flight weather briefing.

07:09:02 UTC

EKVG TAF
Vagar Airport
Vagar, Denmark
TAF EKVG 160521Z 1606/1615 07015KT 9999 BKN030 TEMPO 1606/1615 -RA BKN008

Jun-16@
06:00 UTC

Jun-16 @ 06:00 UTC

Jun-16@
15:00 UTC

Jun-16 @ 15:00 UTC

TAF EKVG 160521Z 1606/1615 07015KT 9999 BKN030
Wind
  • 070° at 15 KTS
Cloud Levels
  • Broken at 3,000' AGL

Jun-16@
06:00 UTC

Jun-16 @ 06:00 UTC

Jun-16@
15:00 UTC

Jun-16 @ 15:00 UTC

TEMPO 1606/1615 -RA BKN008

Temporary

Temporary Changes expected for less than half the time period

Conditions
Light Rain
Cloud Levels
  • Broken at 800' AGL